• Join FlightAware (Why Join?)
  • Login
  • US Flag 
07:49AM EDT


 

Airport Tracker/Info


-or-


 

Live Flight TrackerFlight Track Log ✈ ASA636 ✈ 26-Jun-2013 ✈ KSEA - KPHX

Flight Track Log - Related Links

Times and Time Zones

All times are in EDT time to prevent confusion due to time zone crossing. See the ASA636 flight status page for this flight to view local times or setup timezone preferences in your user account.

Time Position Orientation Groundspeed Altitude Reporting Facility
EDT Latitude Longitude Course Direction KTS MPH feet Rate Location/Type
12:20AM 47.4286 -122.3108 180° South 160 184 1,400  Level Seattle Center
12:21AM 47.3886 -122.3108 180° South 174 200 3,300 2,520 Climbing Seattle Center
12:22AM 47.3319 -122.3106 180° South 200 230 6,100 2,580 Climbing Seattle Center
12:23AM 47.2639 -122.3097 180° South 252 290 8,600 2,340 Climbing Seattle Center
12:24AM 47.1878 -122.2733 162° South 317 365 10,900 2,340 Climbing Seattle Center
12:25AM 47.1000 -122.1822 145° Southeast 367 422 13,500 2,820 Climbing Seattle Center
12:26AM 47.0000 -122.1394 164° South 377 434 16,700 2,700 Climbing Seattle Center
12:27AM 46.9022 -122.1025 166° South 390 449 19,100 2,880 Climbing Seattle Center
12:28AM 46.7933 -122.0600 165° South 407 468 22,600 3,180 Climbing Seattle Center
12:29AM 46.6947 -121.9919 155° Southeast 406 467 25,600 2,340 Climbing Seattle Center
12:30AM 46.6008 -121.8825 141° Southeast 436 502 27,400 1,440 Climbing Seattle Center
12:31AM 46.4817 -121.7433 141° Southeast 466 536 28,600 1,320 Climbing Seattle Center
12:32AM 46.3769 -121.6217 141° Southeast 486 559 30,100 1,860 Climbing Seattle Center
12:34AM 46.2747 -121.5017 141° Southeast 487 560 32,500 2,160 Climbing Seattle Center
12:35AM 46.1722 -121.3850 142° Southeast 475 547 34,500 1,740 Climbing Seattle Center
12:36AM 46.0703 -121.2689 142° Southeast 470 541 36,100 1,320 Climbing Seattle Center
12:37AM 45.9669 -121.1536 142° Southeast 470 541 37,200 1,380 Climbing Seattle Center
12:38AM 45.8661 -121.0389 142° Southeast 466 536 39,000 840 Climbing Seattle Center
12:39AM 45.7653 -120.9278 142° Southeast 459 528 39,000  Level Seattle Center
12:40AM 45.6656 -120.8156 142° Southeast 456 525 39,000  Level Seattle Center
12:41AM 45.5653 -120.7039 142° Southeast 457 526 39,000  Level Seattle Center
12:42AM 45.4453 -120.5717 142° Southeast 456 525 39,000  Level Seattle Center
12:43AM 45.3444 -120.4603 142° Southeast 458 527 39,000  Level Seattle Center
12:44AM 45.2428 -120.3519 143° Southeast 459 528 39,000  Level Seattle Center
12:45AM 45.1433 -120.2428 142° Southeast 456 525 39,000  Level Seattle Center
12:46AM 45.0433 -120.1356 143° Southeast 455 524 39,000  Level Seattle Center
12:47AM 44.9450 -120.0281 142° Southeast 459 528 39,000  Level Seattle Center
12:48AM 44.8253 -119.9011 143° Southeast 466 536 39,000  Level Seattle Center
12:49AM 44.7244 -119.7919 142° Southeast 463 533 39,000  Level Seattle Center
12:50AM 44.6189 -119.6917 146° Southeast 460 529 39,000  Level Seattle Center
12:51AM 44.5058 -119.6228 157° South 444 511 39,000  Level Seattle Center
12:52AM 44.3922 -119.5514 156° South 448 516 39,000  Level Seattle Center
12:53AM 44.2789 -119.4803 156° South 447 514 39,000  Level Seattle Center
12:54AM 44.1633 -119.4097 156° South 452 520 39,000  Level Seattle Center
12:55AM 44.0461 -119.3378 156° South 452 520 39,000  Level Seattle Center
12:56AM 43.9339 -119.2694 156° South 451 519 39,000  Level Seattle Center
12:57AM 43.8208 -119.2006 156° South 445 512 39,000  Level Seattle Center
12:58AM 43.7075 -119.1308 156° South 447 514 39,000  Level Seattle Center
12:59AM 43.5939 -119.0628 157° South 446 513 39,000  Level Seattle Center
01:00AM 43.4808 -118.9947 156° South 445 512 39,000  Level Seattle Center
01:01AM 43.3553 -118.9219 157° South 449 517 39,000  Level Seattle Center
01:02AM 43.2761 -118.8733 156° South 446 513 39,000  Level Salt Lake Center
01:03AM 43.1603 -118.8064 157° South 450 518 39,000  Level Salt Lake Center
01:04AM 43.0464 -118.7358 156° South 450 518 39,000  Level Salt Lake Center
01:05AM 42.9081 -118.6564 157° South 450 518 39,000  Level Salt Lake Center
01:06AM 42.7922 -118.5864 156° South 454 522 39,000  Level Salt Lake Center
01:07AM 42.6769 -118.5203 157° South 452 520 39,000  Level Salt Lake Center
01:08AM 42.5603 -118.4528 157° South 456 525 39,000  Level Salt Lake Center
01:09AM 42.4492 -118.3878 157° South 453 521 39,000  Level Salt Lake Center
01:10AM 42.3186 -118.3139 157° South 456 525 39,000  Level Salt Lake Center
01:11AM 42.2086 -118.2506 157° South 449 517 39,000  Level Salt Lake Center
01:12AM 42.0803 -118.1747 156° South 449 517 39,000  Level Salt Lake Center
01:13AM 41.9692 -118.1117 157° South 452 520 39,000  Level Salt Lake Center
01:14AM 41.8569 -118.0472 157° South 456 525 39,000  Level Salt Lake Center
01:15AM 41.7444 -117.9300 142° Southeast 465 535 39,000  Level Salt Lake Center
01:16AM 41.6569 -117.8128 135° Southeast 464 534 39,000  Level Salt Lake Center
01:17AM 41.5531 -117.6747 135° Southeast 470 541 39,000  Level Salt Lake Center
01:18AM 41.4642 -117.5575 135° Southeast 470 541 39,000  Level Salt Lake Center
01:19AM 41.3756 -117.4414 135° Southeast 466 536 39,000  Level Salt Lake Center
01:20AM 41.2728 -117.3058 135° Southeast 467 537 39,000  Level Salt Lake Center
01:21AM 41.1839 -117.1914 136° Southeast 464 534 39,000  Level Salt Lake Center
01:22AM 41.0956 -117.0758 135° Southeast 464 534 39,000  Level Salt Lake Center
01:23AM 40.9917 -116.9414 136° Southeast 466 536 39,000  Level Salt Lake Center
01:24AM 40.9003 -116.8250 136° Southeast 472 543 39,000  Level Salt Lake Center
01:25AM 40.8114 -116.7097 136° Southeast 467 537 39,000  Level Salt Lake Center
01:26AM 40.7075 -116.5772 136° Southeast 464 534 39,000  Level Salt Lake Center
01:27AM 40.6189 -116.4644 136° Southeast 459 528 39,000  Level Salt Lake Center
01:28AM 40.5286 -116.3519 137° Southeast 461 531 39,000  Level Salt Lake Center
01:29AM 40.4214 -116.2264 138° Southeast 460 529 39,000  Level Salt Lake Center
01:30AM 40.3300 -116.1189 138° Southeast 460 529 39,000  Level Salt Lake Center
01:31AM 40.2383 -116.0111 138° Southeast 459 528 39,000  Level Salt Lake Center
01:32AM 40.1339 -115.8853 137° Southeast 457 526 39,000  Level Salt Lake Center
01:33AM 40.0428 -115.7789 138° Southeast 458 527 39,000  Level Salt Lake Center
01:34AM 39.9361 -115.6564 139° Southeast 458 527 39,000  Level Salt Lake Center
01:35AM 39.8431 -115.5506 139° Southeast 460 529 39,000  Level Salt Lake Center
01:36AM 39.7517 -115.4464 139° Southeast 457 526 39,000  Level Salt Lake Center
01:37AM 39.6492 -115.3236 137° Southeast 450 518 39,000  Level Salt Lake Center
01:38AM 39.5592 -115.2211 139° Southeast 449 517 39,000  Level Salt Lake Center
01:39AM 39.4686 -115.1189 139° Southeast 451 519 39,000  Level Salt Lake Center
01:40AM 39.3614 -115.0006 140° Southeast 453 521 39,000  Level Salt Lake Center
01:41AM 39.2714 -114.8958 138° Southeast 453 521 39,000  Level Salt Lake Center
01:42AM 39.1797 -114.7950 140° Southeast 452 520 39,000  Level Salt Lake Center
01:44AM 39.0839 -114.6869 139° Southeast 452 520 39,000  Level Salt Lake Center
01:45AM 38.9903 -114.5786 138° Southeast 453 521 39,000  Level Salt Lake Center
01:46AM 38.8750 -114.4500 139° Southeast 458 527 39,000  Level Salt Lake Center
01:47AM 38.7786 -114.3439 139° Southeast 458 527 39,000  Level Salt Lake Center
01:48AM 38.6831 -114.2364 139° Southeast 458 527 39,000  Level Salt Lake Center
01:49AM 38.5872 -114.1328 140° Southeast 454 522 39,000  Level Salt Lake Center
01:50AM 38.4903 -114.0267 139° Southeast 458 527 39,000  Level Salt Lake Center
01:51AM 38.3939 -113.9206 139° Southeast 459 528 39,000  Level Salt Lake Center
01:52AM 38.2975 -113.8169 140° Southeast 457 526 39,000  Level Salt Lake Center
01:53AM 38.2011 -113.7117 139° Southeast 456 525 39,000  Level Salt Lake Center
01:54AM 38.1039 -113.6056 139° Southeast 461 531 39,000  Level Salt Lake Center
01:55AM 38.0067 -113.5011 140° Southeast 460 529 39,000  Level Salt Lake Center
01:56AM 37.9075 -113.3969 140° Southeast 463 533 39,000  Level Salt Lake Center
01:57AM 37.7928 -113.3278 155° Southeast 458 527 39,000  Level Salt Lake Center
01:58AM 37.6528 -113.2494 156° South 463 533 39,000  Level Salt Lake Center
01:59AM 37.5369 -113.1869 157° South 460 529 39,000  Level Salt Lake Center
02:00AM 37.4217 -113.1222 156° South 459 528 39,000  Level Los Angeles Center
02:01AM 37.3067 -113.0586 156° South 458 527 39,000  Level Salt Lake Center
02:02AM 37.1900 -112.9950 157° South 459 528 39,000  Level Salt Lake Center
02:03AM 37.0758 -112.9311 156° South 457 526 39,000  Level Salt Lake Center
02:04AM 36.9600 -112.8686 157° South 455 524 39,000  Level Salt Lake Center
02:05AM 36.8450 -112.8056 156° South 453 521 39,000  Level Salt Lake Center
02:06AM 36.7289 -112.7431 157° South 452 520 39,000  Level Los Angeles Center
02:07AM 36.6136 -112.6811 157° South 451 519 39,000  Level Los Angeles Center
02:08AM 36.4756 -112.6067 157° South 451 519 39,000  Level Los Angeles Center
02:09AM 36.3594 -112.5447 157° South 454 522 39,000 -240 Level Los Angeles Center
02:10AM 36.2439 -112.4831 157° South 453 521 38,600 -720 Descending Los Angeles Center
02:11AM 36.1286 -112.4222 157° South 452 520 37,600 -960 Descending Los Angeles Center
02:12AM 36.0056 -112.4022 173° South 451 519 36,700 -960 Descending Los Angeles Center
02:13AM 35.8731 -112.4114 183° South 460 529 35,700 -1,020 Descending Los Angeles Center
02:14AM 35.7461 -112.4142 181° South 458 527 34,700 -960 Descending Los Angeles Center
02:15AM 35.6175 -112.3936 173° South 464 534 33,800 -960 Descending Los Angeles Center
02:16AM 35.4914 -112.3719 172° South 458 527 32,800 -1,020 Descending Los Angeles Center
02:17AM 35.3628 -112.3500 172° South 462 532 31,800 -1,020 Descending Albuquerque Center
02:18AM 35.2339 -112.3283 172° South 464 534 30,900 -960 Descending Albuquerque Center
02:19AM 35.1061 -112.3075 172° South 463 533 29,900 -960 Descending Albuquerque Center
02:20AM 34.9792 -112.2867 172° South 462 532 29,000 -960 Descending Albuquerque Center
02:21AM 34.8503 -112.2644 172° South 465 535 28,000 -1,080 Descending Albuquerque Center
02:22AM 34.7094 -112.2403 172° South 470 541 26,900 -1,260 Descending Albuquerque Center
02:23AM 34.5833 -112.2200 172° South 462 532 25,500 -2,100 Descending Albuquerque Center
02:24AM 34.4656 -112.2003 172° South 439 505 22,700 -2,760 Descending Albuquerque Center
02:25AM 34.3506 -112.1800 172° South 423 487 20,000 -2,700 Descending Albuquerque Center
02:26AM 34.2386 -112.1619 172° South 412 474 17,300 -1,860 Descending Albuquerque Center
02:27AM 34.1375 -112.1450 172° South 370 426 16,300 -1,080 Descending Albuquerque Center
02:28AM 34.0458 -112.1261 170° South 338 389 15,200 -1,380 Descending Albuquerque Center
02:29AM 33.9600 -112.1033 168° South 322 371 13,600 -1,560 Descending Albuquerque Center
02:30AM 33.8781 -112.0825 168° South 306 352 12,100 -1,500 Descending Albuquerque Center
02:31AM 33.7986 -112.0628 168° South 297 342 10,600 -1,080 Descending Albuquerque Center
02:32AM 33.7189 -112.0461 170° South 293 337 10,000 -600 Descending Albuquerque Center
02:33AM 33.6400 -112.0322 172° South 289 333 9,400 -660 Descending Albuquerque Center
02:34AM 33.5833 -112.0167 167° South 253 291 8,900 -1,320 Descending Phoenix TRACON
02:35AM 33.5333 -111.9667 140° Southeast 251 289 7,200 -1,320 Descending Phoenix TRACON
02:36AM 33.5333 -111.9000 90° East 234 269 6,400 -900 Descending Phoenix TRACON
02:37AM 33.5000 -111.8333 121° Southeast 199 229 5,400 -1,020 Descending Phoenix TRACON
02:38AM 33.4667 -111.8333 180° South 182 209 4,400 -1,200 Descending Phoenix TRACON
02:39AM 33.4333 -111.8833 231° Southwest 168 193 3,000 -1,080 Descending Phoenix TRACON
02:40AM 33.4333 -111.9167 270° West 132 152 2,300 -720 Descending Phoenix TRACON
02:41AM 33.4333 -111.9667 270° West 118 136 1,700 -600 Descending Phoenix TRACON